createdAt,value
2023-02-19T00:01:47.828Z,101238.81
2023-02-19T00:05:09.534Z,101240.50
2023-02-19T00:08:32.037Z,101242.38
2023-02-19T00:11:53.639Z,101248.78
2023-02-19T00:15:17.025Z,101242.56
2023-02-19T00:18:38.559Z,101237.28
2023-02-19T00:22:00.010Z,101238.38
2023-02-19T00:25:21.930Z,101239.31
2023-02-19T00:28:43.745Z,101235.75
2023-02-19T00:32:07.110Z,101231.41
2023-02-19T00:35:28.886Z,101238.81
2023-02-19T00:38:51.246Z,101231.81
2023-02-19T00:42:12.692Z,101236.84
2023-02-19T00:45:35.781Z,101238.78
2023-02-19T00:48:59.637Z,101241.88
2023-02-19T00:52:21.292Z,101243.06
2023-02-19T00:55:42.640Z,101231.19
2023-02-19T00:59:04.584Z,101237.41
2023-02-19T01:02:26.884Z,101244.91
2023-02-19T01:05:50.148Z,101229.59
2023-02-19T01:09:11.712Z,101236.44
2023-02-19T01:12:34.215Z,101230.72
2023-02-19T01:15:56.424Z,101231.66
2023-02-19T01:19:18.444Z,101226.69
2023-02-19T01:22:41.708Z,101218.09
2023-02-19T01:26:05.720Z,101226.59
2023-02-19T01:29:27.460Z,101203.34
2023-02-19T01:32:49.456Z,101195.22
2023-02-19T01:36:12.862Z,101181.84
2023-02-19T01:39:36.066Z,101195.13
2023-02-19T01:42:57.895Z,101196.22
2023-02-19T01:46:19.771Z,101182.94
2023-02-19T01:49:48.886Z,101188.06
2023-02-19T01:53:15.823Z,101179.13
2023-02-19T01:56:42.662Z,101180.75
2023-02-19T02:00:08.746Z,101177.19
2023-02-19T02:03:37.976Z,101185.09
2023-02-19T02:07:02.402Z,101178.88
2023-02-19T02:10:23.948Z,101170.03
2023-02-19T02:13:47.549Z,101171.72
2023-02-19T02:17:21.012Z,101155.84
2023-02-19T02:20:59.707Z,101140.84
2023-02-19T02:24:42.778Z,101133.84
2023-02-19T02:28:23.415Z,101133.69
2023-02-19T02:31:53.553Z,101132.75
2023-02-19T02:35:19.271Z,101141.53
2023-02-19T02:38:44.528Z,101137.09
2023-02-19T02:42:24.223Z,101139.66
2023-02-19T02:45:54.777Z,101147.47
2023-02-19T02:49:28.013Z,101141.44
2023-02-19T02:53:11.423Z,101133.50
2023-02-19T02:56:33.609Z,101129.28
2023-02-19T02:59:55.529Z,101131.97
2023-02-19T03:03:22.647Z,101145.94
2023-02-19T03:06:48.719Z,101150.28
2023-02-19T03:10:14.668Z,101164.25
2023-02-19T03:13:57.087Z,101160.66
2023-02-19T03:17:42.195Z,101164.06
2023-02-19T03:21:05.209Z,101166.66
2023-02-19T03:24:49.755Z,101172.09
2023-02-19T03:28:16.149Z,101171.22
2023-02-19T03:31:39.931Z,101168.75
2023-02-19T03:35:04.600Z,101173.19
2023-02-19T03:38:30.996Z,101182.28
2023-02-19T03:42:03.144Z,101181.28
2023-02-19T03:45:34.958Z,101189.44
2023-02-19T03:49:00.542Z,101186.88
2023-02-19T03:52:31.040Z,101187.78
2023-02-19T03:56:00.490Z,101193.34
2023-02-19T03:59:33.303Z,101184.38
2023-02-19T04:02:59.595Z,101191.03
2023-02-19T04:06:25.997Z,101199.72
2023-02-19T04:09:51.068Z,101183.53
2023-02-19T04:13:22.636Z,101190.44
2023-02-19T04:16:51.051Z,101188.91
2023-02-19T04:20:15.591Z,101185.09
2023-02-19T04:23:41.518Z,101188.41
2023-02-19T04:27:04.122Z,101199.50
2023-02-19T04:30:26.322Z,101203.00
2023-02-19T04:33:49.472Z,101204.56
2023-02-19T04:37:11.444Z,101208.66
2023-02-19T04:40:33.196Z,101205.34
2023-02-19T04:43:55.099Z,101203.06
2023-02-19T04:47:17.736Z,101190.59
2023-02-19T04:50:41.304Z,101197.03
2023-02-19T04:54:03.126Z,101207.75
2023-02-19T04:57:25.122Z,101199.75
2023-02-19T05:00:46.782Z,101200.22
2023-02-19T05:04:08.666Z,101197.34
2023-02-19T05:07:31.945Z,101201.03
2023-02-19T05:10:53.772Z,101196.53
2023-02-19T05:14:15.671Z,101187.69
2023-02-19T05:17:37.809Z,101194.94
2023-02-19T05:21:00.372Z,101184.25
2023-02-19T05:24:24.416Z,101183.34
2023-02-19T05:27:46.236Z,101177.13
2023-02-19T05:31:10.104Z,101168.28
2023-02-19T05:34:32.408Z,101167.50
2023-02-19T05:37:53.927Z,101165.03
2023-02-19T05:41:18.867Z,101166.88
2023-02-19T05:44:40.236Z,101165.16
2023-02-19T05:48:02.415Z,101166.25
2023-02-19T05:51:26.171Z,101169.00
2023-02-19T05:54:47.972Z,101174.31
2023-02-19T05:58:10.713Z,101184.19
2023-02-19T06:01:32.658Z,101189.53
2023-02-19T06:04:53.888Z,101193.19
2023-02-19T06:08:16.841Z,101203.03
2023-02-19T06:11:39.217Z,101204.72
2023-02-19T06:15:02.051Z,101204.72
2023-02-19T06:18:23.772Z,101206.50
2023-02-19T06:21:46.637Z,101206.59
2023-02-19T06:25:12.543Z,101216.09
2023-02-19T06:28:34.257Z,101229.69
2023-02-19T06:31:57.377Z,101226.13
2023-02-19T06:35:19.238Z,101240.91
2023-02-19T06:38:41.207Z,101243.53
2023-02-19T06:42:02.700Z,101245.50
2023-02-19T06:45:24.547Z,101244.63
2023-02-19T06:48:47.675Z,101257.91
2023-02-19T06:52:09.252Z,101257.75
2023-02-19T06:55:30.635Z,101261.16
2023-02-19T06:58:52.455Z,101272.63
2023-02-19T07:02:14.630Z,101279.50
2023-02-19T07:05:37.528Z,101293.56
2023-02-19T07:09:00.189Z,101294.63
2023-02-19T07:12:21.749Z,101300.69
2023-02-19T07:15:43.428Z,101301.47
2023-02-19T07:19:04.931Z,101306.63
2023-02-19T07:22:28.225Z,101310.28
2023-02-19T07:25:49.698Z,101319.03
2023-02-19T07:29:11.797Z,101326.94
2023-02-19T07:32:33.292Z,101322.44
2023-02-19T07:35:55.258Z,101332.22
2023-02-19T07:39:18.487Z,101334.69
2023-02-19T07:42:40.484Z,101332.06
2023-02-19T07:46:04.565Z,101337.44
2023-02-19T07:49:26.418Z,101341.78
2023-02-19T07:52:47.815Z,101340.13
2023-02-19T07:56:12.519Z,101353.03
2023-02-19T07:59:33.939Z,101367.13
2023-02-19T08:03:01.220Z,101372.41
2023-02-19T08:06:22.738Z,101386.50
2023-02-19T08:09:44.548Z,101391.91
2023-02-19T08:13:25.623Z,101405.88
2023-02-19T08:16:51.098Z,101399.47
2023-02-19T08:20:12.593Z,101430.59
2023-02-19T08:23:34.035Z,101436.66
2023-02-19T08:26:55.932Z,101438.94
2023-02-19T08:30:18.853Z,101446.13
2023-02-19T08:33:40.763Z,101443.19
2023-02-19T08:37:02.555Z,101457.56
2023-02-19T08:40:24.519Z,101477.41
2023-02-19T08:43:46.248Z,101475.44
2023-02-19T08:47:09.553Z,101474.03
2023-02-19T08:50:31.260Z,101495.19
2023-02-19T08:53:52.848Z,101493.22
2023-02-19T08:57:14.602Z,101479.56
2023-02-19T09:00:35.883Z,101495.28
2023-02-19T09:03:59.009Z,101494.63
2023-02-19T09:07:21.945Z,101508.31
2023-02-19T09:10:44.064Z,101508.03
2023-02-19T09:14:07.520Z,101509.59
2023-02-19T09:17:29.298Z,101518.81
2023-02-19T09:20:52.422Z,101517.09
2023-02-19T09:24:13.823Z,101528.97
2023-02-19T09:27:35.176Z,101534.84
2023-02-19T09:30:57.059Z,101523.16
2023-02-19T09:34:18.920Z,101537.19
2023-02-19T09:37:42.075Z,101533.41
2023-02-19T09:41:09.505Z,101531.50
2023-02-19T09:44:35.207Z,101528.88
2023-02-19T09:47:59.250Z,101543.19
2023-02-19T09:51:21.008Z,101541.97
2023-02-19T09:54:45.008Z,101556.22
2023-02-19T09:58:18.108Z,101548.19
2023-02-19T10:01:40.738Z,101544.47
2023-02-19T10:05:04.409Z,101557.00
2023-02-19T10:08:26.221Z,101560.91
2023-02-19T10:11:50.578Z,101568.19
2023-02-19T10:15:17.819Z,101575.97
2023-02-19T10:18:42.304Z,101585.03
2023-02-19T10:22:05.528Z,101586.66
2023-02-19T10:25:27.658Z,101604.06
2023-02-19T10:28:51.396Z,101615.25
2023-02-19T10:32:20.977Z,101628.88
2023-02-19T10:35:54.593Z,101615.56
2023-02-19T10:39:37.740Z,101622.97
2023-02-19T10:43:03.662Z,101629.31
2023-02-19T10:46:30.154Z,101636.16
2023-02-19T10:49:53.445Z,101637.03
2023-02-19T10:53:23.396Z,101651.16
2023-02-19T10:56:45.260Z,101657.84
2023-02-19T11:00:24.198Z,101665.69
2023-02-19T11:03:47.771Z,101667.19
2023-02-19T11:07:11.743Z,101649.41
2023-02-19T11:10:42.287Z,101676.88
2023-02-19T11:14:07.272Z,101671.69
2023-02-19T11:17:31.227Z,101669.03
2023-02-19T11:20:57.145Z,101669.72
2023-02-19T11:24:25.713Z,101698.53
2023-02-19T11:27:55.790Z,101688.88
2023-02-19T11:31:25.352Z,101689.38
2023-02-19T11:34:48.226Z,101703.03
2023-02-19T11:38:13.474Z,101710.16
2023-02-19T11:42:05.118Z,101713.66
2023-02-19T11:45:35.908Z,101708.84
2023-02-19T11:49:12.320Z,101709.56
2023-02-19T11:52:39.939Z,101721.69
2023-02-19T11:56:16.647Z,101709.75
2023-02-19T11:59:48.334Z,101724.16
2023-02-19T12:03:35.779Z,101708.00
2023-02-19T12:07:12.006Z,101715.56
2023-02-19T12:10:43.584Z,101706.38
2023-02-19T12:14:26.328Z,101707.25
2023-02-19T12:18:07.200Z,101710.56
2023-02-19T12:21:45.192Z,101716.00
2023-02-19T12:25:23.772Z,101726.44
2023-02-19T12:29:03.326Z,101717.72
2023-02-19T12:32:51.209Z,101727.06
2023-02-19T12:36:23.028Z,101730.16
2023-02-19T12:39:53.610Z,101727.31
2023-02-19T12:43:18.549Z,101738.28
2023-02-19T12:46:42.547Z,101738.50
2023-02-19T12:50:15.599Z,101729.34
2023-02-19T12:53:42.817Z,101728.25
2023-02-19T12:57:07.777Z,101747.41
2023-02-19T13:00:34.600Z,101746.78
2023-02-19T13:04:15.697Z,101753.94
2023-02-19T13:07:46.052Z,101756.88
2023-02-19T13:11:11.963Z,101767.25
2023-02-19T13:14:38.355Z,101760.72
2023-02-19T13:18:01.678Z,101781.72
2023-02-19T13:21:45.537Z,101777.44
2023-02-19T13:25:11.364Z,101773.94
2023-02-19T13:28:51.156Z,101785.38
2023-02-19T13:32:36.030Z,101782.66
2023-02-19T13:36:13.366Z,101784.69
2023-02-19T13:39:35.342Z,101786.91
2023-02-19T13:43:00.636Z,101786.97
2023-02-19T13:46:22.749Z,101782.19
2023-02-19T13:49:50.251Z,101791.75
2023-02-19T13:53:54.710Z,101792.38
2023-02-19T13:57:29.858Z,101796.66
2023-02-19T14:00:54.068Z,101794.78
2023-02-19T14:04:21.712Z,101811.38
2023-02-19T14:07:54.379Z,101811.28
2023-02-19T14:11:16.199Z,101821.72
2023-02-19T14:14:39.477Z,101829.59
2023-02-19T14:18:02.859Z,101824.16
2023-02-19T14:21:35.167Z,101837.28
2023-02-19T14:24:58.753Z,101831.22
2023-02-19T14:28:27.520Z,101842.88
2023-02-19T14:31:49.165Z,101827.22
2023-02-19T14:35:21.394Z,101830.34
2023-02-19T14:38:47.248Z,101829.19
2023-02-19T14:42:15.160Z,101829.25
2023-02-19T14:45:44.314Z,101831.97
2023-02-19T14:49:14.036Z,101840.84
2023-02-19T14:52:43.524Z,101849.94
2023-02-19T14:56:06.842Z,101841.31
2023-02-19T14:59:30.158Z,101842.19
2023-02-19T15:02:53.468Z,101834.78
2023-02-19T15:06:20.211Z,101835.09
2023-02-19T15:09:48.365Z,101840.06
2023-02-19T15:13:17.417Z,101854.72
2023-02-19T15:16:39.211Z,101854.41
2023-02-19T15:20:05.729Z,101854.41
2023-02-19T15:23:30.430Z,101852.53
2023-02-19T15:26:55.994Z,101869.66
2023-02-19T15:30:24.116Z,101868.41
2023-02-19T15:33:53.148Z,101871.84
2023-02-19T15:37:15.553Z,101874.47
2023-02-19T15:40:38.027Z,101879.34
2023-02-19T15:44:13.211Z,101885.03
2023-02-19T15:47:41.235Z,101885.66
2023-02-19T15:51:09.469Z,101896.41
2023-02-19T15:54:39.195Z,101891.88
2023-02-19T15:58:08.641Z,101895.09
2023-02-19T16:01:34.364Z,101897.59
2023-02-19T16:04:55.871Z,101910.16
2023-02-19T16:08:20.239Z,101904.97
2023-02-19T16:11:51.314Z,101899.75
2023-02-19T16:15:14.758Z,101897.63
2023-02-19T16:18:37.747Z,101909.00
2023-02-19T16:21:59.786Z,101922.06
2023-02-19T16:25:30.537Z,101932.56
2023-02-19T16:28:53.847Z,101934.22
2023-02-19T16:32:18.260Z,101942.06
2023-02-19T16:35:41.602Z,101950.16
2023-02-19T16:39:25.941Z,101953.88
2023-02-19T16:43:29.349Z,101955.03
2023-02-19T16:46:54.579Z,101972.16
2023-02-19T16:50:18.503Z,101980.38
2023-02-19T16:53:40.340Z,101977.13
2023-02-19T16:57:02.206Z,101977.47
2023-02-19T17:00:25.644Z,101976.03
2023-02-19T17:03:49.508Z,101982.44
2023-02-19T17:07:15.055Z,101978.31
2023-02-19T17:10:36.826Z,101972.53
2023-02-19T17:13:58.220Z,101981.69
2023-02-19T17:17:20.101Z,101988.97
2023-02-19T17:20:49.111Z,101988.50
2023-02-19T17:24:11.076Z,101987.97
2023-02-19T17:27:33.285Z,101996.16
2023-02-19T17:30:55.172Z,101992.91
2023-02-19T17:34:16.973Z,101992.31
2023-02-19T17:37:40.397Z,101992.59
2023-02-19T17:41:02.084Z,101992.06
2023-02-19T17:44:23.400Z,102002.88
2023-02-19T17:47:45.465Z,102002.25
2023-02-19T17:51:07.178Z,102006.94
2023-02-19T17:54:30.100Z,102002.75
2023-02-19T17:57:53.095Z,101997.72
2023-02-19T18:01:15.644Z,102002.38
2023-02-19T18:04:38.467Z,102006.13
2023-02-19T18:08:01.482Z,102012.50
2023-02-19T18:11:25.267Z,102018.84
2023-02-19T18:14:47.490Z,102019.06
2023-02-19T18:18:09.817Z,102028.97
2023-02-19T18:21:31.264Z,102030.84
2023-02-19T18:24:54.245Z,102031.03
2023-02-19T18:28:17.242Z,102040.91
2023-02-19T18:31:38.954Z,102037.50
2023-02-19T18:35:01.149Z,102032.38
2023-02-19T18:38:22.900Z,102034.28
2023-02-19T18:41:48.451Z,102037.94
2023-02-19T18:45:11.765Z,102034.53
2023-02-19T18:48:32.970Z,102051.34
2023-02-19T18:51:55.199Z,102040.91
2023-02-19T18:55:16.958Z,102028.59
2023-02-19T18:58:38.502Z,102026.91
2023-02-19T19:02:02.703Z,102028.03
2023-02-19T19:05:25.238Z,102031.59
2023-02-19T19:08:47.065Z,102040.50
2023-02-19T19:12:08.880Z,102040.53
2023-02-19T19:15:30.550Z,102045.91
2023-02-19T19:18:54.303Z,102048.59
2023-02-19T19:22:16.627Z,102055.66
2023-02-19T19:25:38.700Z,102046.13
2023-02-19T19:29:00.126Z,102054.16
2023-02-19T19:32:21.982Z,102050.75
2023-02-19T19:35:44.999Z,102056.94
2023-02-19T19:39:06.419Z,102050.84
2023-02-19T19:42:27.725Z,102041.34
2023-02-19T19:45:50.443Z,102041.34
2023-02-19T19:49:12.372Z,102036.09
2023-02-19T19:52:35.520Z,102043.19
2023-02-19T19:55:57.390Z,102039.66
2023-02-19T19:59:19.201Z,102035.38
2023-02-19T20:02:41.282Z,102036.22
2023-02-19T20:06:03.334Z,102039.75
2023-02-19T20:09:29.078Z,102037.13
2023-02-19T20:12:50.801Z,102034.56
2023-02-19T20:16:14.472Z,102037.22
2023-02-19T20:19:36.228Z,102038.16
2023-02-19T20:22:58.235Z,102037.31
2023-02-19T20:26:26.613Z,102046.03
2023-02-19T20:29:48.287Z,102045.19
2023-02-19T20:33:10.299Z,102047.84
2023-02-19T20:36:32.745Z,102058.38
2023-02-19T20:39:54.456Z,102058.38
2023-02-19T20:43:17.727Z,102066.31
2023-02-19T20:46:42.844Z,102068.03
2023-02-19T20:50:04.872Z,102064.56
2023-02-19T20:53:26.311Z,102062.81
2023-02-19T20:56:50.114Z,102065.47
2023-02-19T21:00:15.575Z,102057.59
2023-02-19T21:03:37.416Z,102059.31
2023-02-19T21:06:59.174Z,102061.94
2023-02-19T21:10:20.629Z,102057.59
2023-02-19T21:13:43.533Z,102056.75
2023-02-19T21:17:06.808Z,102047.06
2023-02-19T21:20:28.821Z,102057.59
2023-02-19T21:23:50.533Z,102057.69
2023-02-19T21:27:12.323Z,102041.91
2023-02-19T21:30:34.247Z,102022.56
2023-02-19T21:33:57.411Z,102017.19
2023-02-19T21:37:18.982Z,102012.72
2023-02-19T21:40:40.840Z,102001.34
2023-02-19T21:44:02.753Z,102000.47
2023-02-19T21:47:24.786Z,101996.03
2023-02-19T21:50:48.568Z,101994.28
2023-02-19T21:54:15.444Z,101983.66
2023-02-19T21:57:36.860Z,101980.09
2023-02-19T22:00:58.809Z,101984.34
2023-02-19T22:04:24.498Z,101978.09
2023-02-19T22:07:48.414Z,101979.75
2023-02-19T22:11:09.942Z,101972.59
2023-02-19T22:14:31.369Z,101959.25
2023-02-19T22:17:53.184Z,101958.28
2023-02-19T22:21:15.292Z,101956.34
2023-02-19T22:24:38.441Z,101949.19
2023-02-19T22:28:00.251Z,101950.81
2023-02-19T22:31:24.350Z,101947.28
2023-02-19T22:34:46.116Z,101963.91
2023-02-19T22:38:07.633Z,101963.91
2023-02-19T22:41:31.386Z,101960.31
2023-02-19T22:44:53.408Z,101965.50
2023-02-19T22:48:25.159Z,101970.78
2023-02-19T22:51:56.328Z,101970.84
2023-02-19T22:55:18.948Z,101971.88
2023-02-19T22:58:41.980Z,101978.06
2023-02-19T23:02:03.626Z,101986.81
2023-02-19T23:05:25.554Z,101990.31
2023-02-19T23:08:47.704Z,101981.63
2023-02-19T23:12:11.600Z,101982.41
2023-02-19T23:15:34.945Z,101969.19
2023-02-19T23:18:56.703Z,101956.88
2023-02-19T23:22:18.222Z,101948.97
2023-02-19T23:25:39.958Z,101960.31
2023-02-19T23:29:01.791Z,101943.59
2023-02-19T23:32:24.526Z,101943.50
2023-02-19T23:35:45.784Z,101940.84
2023-02-19T23:39:07.607Z,101933.72
2023-02-19T23:42:29.735Z,101929.34
2023-02-19T23:45:51.807Z,101920.38
2023-02-19T23:49:15.135Z,101919.34
2023-02-19T23:52:36.714Z,101927.97
2023-02-19T23:55:58.816Z,101931.41
2023-02-19T23:59:20.379Z,101919.91
